Aeroporto :
LOGIN :

Iscrizione | Disclaimer

   EN    FR    IT 

 










Sommario :    VFR   VFR Marginale   IFR   IFR Intensivo   IFR Molto Intensivo
Visibilità : 
Base nubi : 
>= 8 km
>= 3000ft
5 / 8 km
1000 / 3000 ft
1500m / 5 km
500 / 1000 ft
800 / 1500m
200 / 500 ft
< 800m
< 200 ft
Simboli :   Temporali  Nebbia  Neve Forte  Precipitazioni Forti  Vento > 20 kt
SIGMETs :   Varie  Temporali  Ghiacco  Turbolenza  Onda orograficha  Ceneri Vulcaniche






- Altitudine del aeroporto : 1058 ft
- Codice IATA : SCN


EDDR - Saarbrücken

ULTIMO METAR :
  • 090950Z 22008KT 2500 BR SCT002 OVC003 01/01 Q1007 TEMPO 4000

METARs OBSOLETI :
  • 090920Z 23009KT 2500 BR SCT002 OVC003 01/01 Q1007 TEMPO 4000
  • 090850Z 23007KT 2100 BR SCT002 OVC003 01/01 Q1007 TEMPO 4000
  • 090820Z 22006KT 2100 BR SCT002 OVC003 01/01 Q1007 TEMPO 4000
  • 090750Z 23008KT 2100 BR SCT002 OVC003 01/00 Q1007 TEMPO 4000
  • 090720Z 24011KT 3000 BR FEW002 OVC003 01/00 Q1006 TEMPO 2000

TAF AMD TAF EDDR
Valido dal 09 a 08 ore il 10 a 06 ore UTC


090803Z 0908/1006 24005KT 9000 BKN006
TEMPO 0908/0910 2000 BR BKN003
BECMG 0909/0911 23010KT
TEMPO 0912/0917 4000 SHSNRA BKN004 BKN015CB
BECMG 1000/1002 17007KT



MetMap, La meteo Aeronautica in un colpo d'occhio ! - Copyright ORBIFLY Dicembre 2007 - Disclaimer

ORBIFLY MET'MAP TEAM :

Programmazione e sviluppo : Alexandra Zaïnal
Concezione : Baudouin d'Aumeries
Aiuto per la programmazione : Marc-Olivier Méhu
Supporto tecnico e logistico : Manuel Goepfert
Aiuto per la traduzione : Arnaldo La Scala

Contatto : metmap@orbifly.com




FONTI E CREDITI :

   NOAA